sensor_id;sensor_type;location;lat;lon;timestamp;P1;durP1;ratioP1;P2;durP2;ratioP2
34982;SDS011;21187;50.976;13.720;2024-03-29T00:00:14;2.20;;;0.73;;
34982;SDS011;21187;50.976;13.720;2024-03-29T00:05:15;3.35;;;1.00;;
34982;SDS011;21187;50.976;13.720;2024-03-29T00:10:16;2.42;;;0.80;;
34982;SDS011;21187;50.976;13.720;2024-03-29T00:15:17;1.02;;;0.40;;
34982;SDS011;21187;50.976;13.720;2024-03-29T00:20:18;2.53;;;0.60;;
34982;SDS011;21187;50.976;13.720;2024-03-29T00:25:20;0.63;;;0.50;;
34982;SDS011;21187;50.976;13.720;2024-03-29T00:30:21;3.15;;;0.80;;
34982;SDS011;21187;50.976;13.720;2024-03-29T00:35:22;2.00;;;0.60;;
34982;SDS011;21187;50.976;13.720;2024-03-29T00:40:23;3.72;;;0.75;;
34982;SDS011;21187;50.976;13.720;2024-03-29T00:45:24;1.02;;;0.60;;
34982;SDS011;21187;50.976;13.720;2024-03-29T00:50:25;2.35;;;0.70;;
34982;SDS011;21187;50.976;13.720;2024-03-29T00:55:25;3.17;;;0.70;;
34982;SDS011;21187;50.976;13.720;2024-03-29T01:00:26;4.15;;;0.88;;
34982;SDS011;21187;50.976;13.720;2024-03-29T01:05:27;2.97;;;0.68;;
34982;SDS011;21187;50.976;13.720;2024-03-29T01:10:28;4.72;;;0.70;;
34982;SDS011;21187;50.976;13.720;2024-03-29T01:15:28;3.35;;;0.60;;
34982;SDS011;21187;50.976;13.720;2024-03-29T01:20:30;2.22;;;0.60;;
34982;SDS011;21187;50.976;13.720;2024-03-29T01:25:31;1.30;;;0.65;;
34982;SDS011;21187;50.976;13.720;2024-03-29T01:30:31;5.10;;;1.00;;
34982;SDS011;21187;50.976;13.720;2024-03-29T01:35:33;2.67;;;0.63;;
34982;SDS011;21187;50.976;13.720;2024-03-29T01:40:33;2.47;;;0.73;;
34982;SDS011;21187;50.976;13.720;2024-03-29T01:45:41;1.60;;;0.73;;
34982;SDS011;21187;50.976;13.720;2024-03-29T01:50:43;2.97;;;0.68;;
34982;SDS011;21187;50.976;13.720;2024-03-29T01:55:45;2.28;;;0.60;;
34982;SDS011;21187;50.976;13.720;2024-03-29T02:00:54;1.83;;;0.60;;
34982;SDS011;21187;50.976;13.720;2024-03-29T02:05:57;1.33;;;0.50;;
34982;SDS011;21187;50.976;13.720;2024-03-29T02:10:59;1.45;;;0.50;;
34982;SDS011;21187;50.976;13.720;2024-03-29T02:16:01;4.78;;;0.80;;
34982;SDS011;21187;50.976;13.720;2024-03-29T02:21:01;3.08;;;0.82;;
34982;SDS011;21187;50.976;13.720;2024-03-29T02:26:03;2.63;;;0.70;;
34982;SDS011;21187;50.976;13.720;2024-03-29T02:31:04;2.45;;;0.75;;
34982;SDS011;21187;50.976;13.720;2024-03-29T02:36:05;3.63;;;0.50;;
34982;SDS011;21187;50.976;13.720;2024-03-29T02:41:06;3.85;;;1.02;;
34982;SDS011;21187;50.976;13.720;2024-03-29T02:46:07;2.53;;;0.80;;
34982;SDS011;21187;50.976;13.720;2024-03-29T02:51:08;3.38;;;0.60;;
34982;SDS011;21187;50.976;13.720;2024-03-29T02:56:08;4.60;;;0.85;;
34982;SDS011;21187;50.976;13.720;2024-03-29T03:01:09;2.58;;;0.70;;
34982;SDS011;21187;50.976;13.720;2024-03-29T03:06:10;4.03;;;0.93;;
34982;SDS011;21187;50.976;13.720;2024-03-29T03:11:11;5.38;;;1.02;;
34982;SDS011;21187;50.976;13.720;2024-03-29T03:16:11;8.55;;;0.80;;
34982;SDS011;21187;50.976;13.720;2024-03-29T03:21:12;3.03;;;0.80;;
34982;SDS011;21187;50.976;13.720;2024-03-29T03:26:13;4.05;;;0.80;;
34982;SDS011;21187;50.976;13.720;2024-03-29T03:31:14;0.47;;;0.47;;
34982;SDS011;21187;50.976;13.720;2024-03-29T03:36:14;2.72;;;0.70;;
34982;SDS011;21187;50.976;13.720;2024-03-29T03:41:15;1.98;;;0.68;;
34982;SDS011;21187;50.976;13.720;2024-03-29T03:46:16;3.72;;;0.88;;
34982;SDS011;21187;50.976;13.720;2024-03-29T03:51:17;4.63;;;0.60;;
34982;SDS011;21187;50.976;13.720;2024-03-29T03:56:17;2.28;;;0.80;;
34982;SDS011;21187;50.976;13.720;2024-03-29T04:01:19;2.33;;;0.63;;
34982;SDS011;21187;50.976;13.720;2024-03-29T04:06:20;1.13;;;0.50;;
34982;SDS011;21187;50.976;13.720;2024-03-29T04:11:20;3.97;;;1.00;;
34982;SDS011;21187;50.976;13.720;2024-03-29T04:16:21;2.60;;;0.75;;
34982;SDS011;21187;50.976;13.720;2024-03-29T04:21:22;4.45;;;0.63;;
34982;SDS011;21187;50.976;13.720;2024-03-29T04:26:23;3.10;;;0.63;;
34982;SDS011;21187;50.976;13.720;2024-03-29T04:31:23;4.55;;;0.90;;
34982;SDS011;21187;50.976;13.720;2024-03-29T04:36:24;2.03;;;0.80;;
34982;SDS011;21187;50.976;13.720;2024-03-29T04:41:25;0.50;;;0.40;;
34982;SDS011;21187;50.976;13.720;2024-03-29T04:46:26;0.82;;;0.52;;
34982;SDS011;21187;50.976;13.720;2024-03-29T04:51:27;4.45;;;0.60;;
34982;SDS011;21187;50.976;13.720;2024-03-29T04:56:28;0.77;;;0.60;;
34982;SDS011;21187;50.976;13.720;2024-03-29T05:01:29;1.90;;;0.80;;
34982;SDS011;21187;50.976;13.720;2024-03-29T05:06:29;1.45;;;0.63;;
34982;SDS011;21187;50.976;13.720;2024-03-29T05:11:30;1.67;;;0.80;;
34982;SDS011;21187;50.976;13.720;2024-03-29T05:16:31;2.90;;;1.20;;
34982;SDS011;21187;50.976;13.720;2024-03-29T05:21:32;3.13;;;1.02;;
34982;SDS011;21187;50.976;13.720;2024-03-29T05:26:33;4.07;;;0.88;;
34982;SDS011;21187;50.976;13.720;2024-03-29T05:31:34;2.85;;;0.90;;
34982;SDS011;21187;50.976;13.720;2024-03-29T05:36:35;2.80;;;0.88;;
34982;SDS011;21187;50.976;13.720;2024-03-29T05:41:37;2.47;;;0.90;;
34982;SDS011;21187;50.976;13.720;2024-03-29T05:46:38;3.78;;;1.25;;
34982;SDS011;21187;50.976;13.720;2024-03-29T05:51:40;3.30;;;1.05;;
34982;SDS011;21187;50.976;13.720;2024-03-29T05:56:41;2.05;;;0.77;;
34982;SDS011;21187;50.976;13.720;2024-03-29T06:01:43;1.08;;;0.60;;
34982;SDS011;21187;50.976;13.720;2024-03-29T06:06:44;2.65;;;1.88;;
34982;SDS011;21187;50.976;13.720;2024-03-29T06:11:45;1.55;;;0.75;;
34982;SDS011;21187;50.976;13.720;2024-03-29T06:16:45;2.20;;;0.95;;
34982;SDS011;21187;50.976;13.720;2024-03-29T06:22:05;3.65;;;0.90;;
34982;SDS011;21187;50.976;13.720;2024-03-29T06:27:08;1.67;;;0.80;;
34982;SDS011;21187;50.976;13.720;2024-03-29T06:32:09;3.38;;;0.80;;
34982;SDS011;21187;50.976;13.720;2024-03-29T06:37:10;1.70;;;0.60;;
34982;SDS011;21187;50.976;13.720;2024-03-29T06:42:11;1.48;;;0.65;;
34982;SDS011;21187;50.976;13.720;2024-03-29T06:47:12;0.70;;;0.55;;
34982;SDS011;21187;50.976;13.720;2024-03-29T06:52:13;1.00;;;0.60;;
34982;SDS011;21187;50.976;13.720;2024-03-29T06:57:14;1.70;;;0.50;;
34982;SDS011;21187;50.976;13.720;2024-03-29T07:02:17;1.10;;;0.50;;
34982;SDS011;21187;50.976;13.720;2024-03-29T07:07:19;4.03;;;0.93;;
34982;SDS011;21187;50.976;13.720;2024-03-29T07:12:20;1.20;;;0.60;;
34982;SDS011;21187;50.976;13.720;2024-03-29T07:17:21;2.15;;;0.47;;
34982;SDS011;21187;50.976;13.720;2024-03-29T07:22:22;3.13;;;0.63;;
34982;SDS011;21187;50.976;13.720;2024-03-29T07:27:23;1.05;;;0.50;;
34982;SDS011;21187;50.976;13.720;2024-03-29T07:32:23;3.13;;;0.77;;
34982;SDS011;21187;50.976;13.720;2024-03-29T07:37:24;1.50;;;0.70;;
34982;SDS011;21187;50.976;13.720;2024-03-29T07:42:25;2.35;;;0.70;;
34982;SDS011;21187;50.976;13.720;2024-03-29T07:47:26;2.80;;;0.80;;
34982;SDS011;21187;50.976;13.720;2024-03-29T07:52:27;3.75;;;0.70;;
34982;SDS011;21187;50.976;13.720;2024-03-29T07:57:30;2.67;;;0.77;;
34982;SDS011;21187;50.976;13.720;2024-03-29T08:02:31;4.43;;;0.80;;
34982;SDS011;21187;50.976;13.720;2024-03-29T08:07:32;1.77;;;0.60;;
34982;SDS011;21187;50.976;13.720;2024-03-29T08:12:33;3.47;;;0.70;;
34982;SDS011;21187;50.976;13.720;2024-03-29T08:17:36;0.73;;;0.40;;
34982;SDS011;21187;50.976;13.720;2024-03-29T08:22:37;0.93;;;0.47;;
34982;SDS011;21187;50.976;13.720;2024-03-29T08:27:37;1.55;;;0.77;;
34982;SDS011;21187;50.976;13.720;2024-03-29T08:32:39;3.17;;;0.85;;
34982;SDS011;21187;50.976;13.720;2024-03-29T08:37:40;0.60;;;0.30;;
34982;SDS011;21187;50.976;13.720;2024-03-29T08:42:41;1.63;;;0.47;;
34982;SDS011;21187;50.976;13.720;2024-03-29T08:47:41;2.05;;;0.47;;
34982;SDS011;21187;50.976;13.720;2024-03-29T08:52:42;1.50;;;0.50;;
34982;SDS011;21187;50.976;13.720;2024-03-29T08:57:44;1.25;;;0.40;;
34982;SDS011;21187;50.976;13.720;2024-03-29T09:02:48;0.85;;;0.30;;
34982;SDS011;21187;50.976;13.720;2024-03-29T09:07:49;2.42;;;0.50;;
34982;SDS011;21187;50.976;13.720;2024-03-29T09:12:50;4.60;;;0.60;;
34982;SDS011;21187;50.976;13.720;2024-03-29T09:17:51;2.72;;;0.90;;
34982;SDS011;21187;50.976;13.720;2024-03-29T09:22:55;3.65;;;0.50;;
34982;SDS011;21187;50.976;13.720;2024-03-29T09:27:56;1.42;;;0.50;;
34982;SDS011;21187;50.976;13.720;2024-03-29T09:32:57;4.05;;;0.55;;
34982;SDS011;21187;50.976;13.720;2024-03-29T09:37:58;4.63;;;0.60;;
34982;SDS011;21187;50.976;13.720;2024-03-29T09:43:00;1.35;;;0.47;;
34982;SDS011;21187;50.976;13.720;2024-03-29T10:39:50;4.50;;;1.02;;
34982;SDS011;21187;50.976;13.720;2024-03-29T10:44:51;5.20;;;1.00;;
34982;SDS011;21187;50.976;13.720;2024-03-29T10:49:54;2.47;;;1.17;;
34982;SDS011;21187;50.976;13.720;2024-03-29T10:54:58;3.00;;;1.17;;
34982;SDS011;21187;50.976;13.720;2024-03-29T11:05:09;2.30;;;1.00;;
34982;SDS011;21187;50.976;13.720;2024-03-29T11:10:13;2.80;;;1.02;;
34982;SDS011;21187;50.976;13.720;2024-03-29T11:15:28;3.85;;;1.58;;
34982;SDS011;21187;50.976;13.720;2024-03-29T11:20:30;2.33;;;1.05;;
34982;SDS011;21187;50.976;13.720;2024-03-29T11:25:40;2.38;;;1.02;;
34982;SDS011;21187;50.976;13.720;2024-03-29T11:30:45;2.08;;;0.95;;
34982;SDS011;21187;50.976;13.720;2024-03-29T11:35:47;2.53;;;0.93;;
34982;SDS011;21187;50.976;13.720;2024-03-29T11:41:00;3.72;;;1.50;;
34982;SDS011;21187;50.976;13.720;2024-03-29T11:46:07;2.30;;;0.95;;
34982;SDS011;21187;50.976;13.720;2024-03-29T11:51:11;4.07;;;1.42;;
34982;SDS011;21187;50.976;13.720;2024-03-29T11:56:15;3.45;;;1.00;;
34982;SDS011;21187;50.976;13.720;2024-03-29T12:01:15;3.20;;;1.08;;
34982;SDS011;21187;50.976;13.720;2024-03-29T12:06:17;2.97;;;0.90;;
34982;SDS011;21187;50.976;13.720;2024-03-29T12:11:19;1.83;;;0.95;;
34982;SDS011;21187;50.976;13.720;2024-03-29T12:16:20;3.15;;;1.20;;
34982;SDS011;21187;50.976;13.720;2024-03-29T12:21:20;4.28;;;1.02;;
34982;SDS011;21187;50.976;13.720;2024-03-29T12:26:22;3.97;;;0.80;;
34982;SDS011;21187;50.976;13.720;2024-03-29T12:31:23;1.35;;;0.68;;
34982;SDS011;21187;50.976;13.720;2024-03-29T12:36:24;1.95;;;0.90;;
34982;SDS011;21187;50.976;13.720;2024-03-29T12:41:30;1.48;;;0.90;;
34982;SDS011;21187;50.976;13.720;2024-03-29T12:46:31;2.95;;;0.82;;
34982;SDS011;21187;50.976;13.720;2024-03-29T12:51:33;4.22;;;0.57;;
34982;SDS011;21187;50.976;13.720;2024-03-29T12:56:35;1.15;;;0.68;;
34982;SDS011;21187;50.976;13.720;2024-03-29T13:01:38;0.57;;;0.40;;
34982;SDS011;21187;50.976;13.720;2024-03-29T13:06:40;3.42;;;0.85;;
34982;SDS011;21187;50.976;13.720;2024-03-29T13:11:40;3.67;;;0.75;;
34982;SDS011;21187;50.976;13.720;2024-03-29T13:16:41;1.42;;;0.70;;
34982;SDS011;21187;50.976;13.720;2024-03-29T13:21:42;1.15;;;0.57;;
34982;SDS011;21187;50.976;13.720;2024-03-29T13:26:43;1.25;;;0.65;;
34982;SDS011;21187;50.976;13.720;2024-03-29T13:31:44;1.05;;;0.45;;
34982;SDS011;21187;50.976;13.720;2024-03-29T13:36:45;2.30;;;1.00;;
34982;SDS011;21187;50.976;13.720;2024-03-29T13:41:46;1.33;;;0.70;;
34982;SDS011;21187;50.976;13.720;2024-03-29T13:46:47;2.10;;;0.43;;
34982;SDS011;21187;50.976;13.720;2024-03-29T13:51:47;0.70;;;0.57;;
34982;SDS011;21187;50.976;13.720;2024-03-29T13:56:48;0.88;;;0.60;;
34982;SDS011;21187;50.976;13.720;2024-03-29T14:01:49;1.88;;;0.77;;
34982;SDS011;21187;50.976;13.720;2024-03-29T14:06:50;0.85;;;0.70;;
34982;SDS011;21187;50.976;13.720;2024-03-29T14:11:51;1.58;;;0.60;;
34982;SDS011;21187;50.976;13.720;2024-03-29T14:16:52;1.38;;;0.63;;
34982;SDS011;21187;50.976;13.720;2024-03-29T14:21:53;4.03;;;1.30;;
34982;SDS011;21187;50.976;13.720;2024-03-29T14:26:53;2.10;;;0.88;;
34982;SDS011;21187;50.976;13.720;2024-03-29T14:31:54;1.15;;;0.65;;
34982;SDS011;21187;50.976;13.720;2024-03-29T14:36:55;2.72;;;1.20;;
34982;SDS011;21187;50.976;13.720;2024-03-29T14:41:56;5.05;;;1.63;;
34982;SDS011;21187;50.976;13.720;2024-03-29T14:46:59;4.25;;;1.65;;
34982;SDS011;21187;50.976;13.720;2024-03-29T14:51:59;11.45;;;1.15;;
34982;SDS011;21187;50.976;13.720;2024-03-29T14:57:00;2.58;;;0.77;;
34982;SDS011;21187;50.976;13.720;2024-03-29T15:02:01;2.33;;;1.20;;
34982;SDS011;21187;50.976;13.720;2024-03-29T15:07:02;1.90;;;0.90;;
34982;SDS011;21187;50.976;13.720;2024-03-29T15:12:04;2.63;;;1.08;;
34982;SDS011;21187;50.976;13.720;2024-03-29T15:17:04;2.40;;;1.30;;
34982;SDS011;21187;50.976;13.720;2024-03-29T15:22:05;2.13;;;1.30;;
34982;SDS011;21187;50.976;13.720;2024-03-29T15:27:08;1.10;;;0.68;;
34982;SDS011;21187;50.976;13.720;2024-03-29T15:32:16;1.27;;;0.70;;
34982;SDS011;21187;50.976;13.720;2024-03-29T15:37:17;4.90;;;1.50;;
34982;SDS011;21187;50.976;13.720;2024-03-29T15:42:18;3.03;;;1.33;;
34982;SDS011;21187;50.976;13.720;2024-03-29T15:47:20;4.57;;;1.95;;
34982;SDS011;21187;50.976;13.720;2024-03-29T15:52:20;4.15;;;1.73;;
34982;SDS011;21187;50.976;13.720;2024-03-29T15:57:21;4.55;;;1.77;;
34982;SDS011;21187;50.976;13.720;2024-03-29T16:02:22;6.45;;;2.47;;
34982;SDS011;21187;50.976;13.720;2024-03-29T16:07:23;5.47;;;2.28;;
34982;SDS011;21187;50.976;13.720;2024-03-29T16:12:24;8.20;;;2.85;;
34982;SDS011;21187;50.976;13.720;2024-03-29T16:17:24;9.75;;;3.72;;
34982;SDS011;21187;50.976;13.720;2024-03-29T16:22:25;9.60;;;3.92;;
34982;SDS011;21187;50.976;13.720;2024-03-29T16:27:26;10.10;;;3.10;;
34982;SDS011;21187;50.976;13.720;2024-03-29T16:32:27;6.30;;;2.58;;
34982;SDS011;21187;50.976;13.720;2024-03-29T16:37:30;11.90;;;3.60;;
34982;SDS011;21187;50.976;13.720;2024-03-29T16:42:31;14.40;;;5.85;;
34982;SDS011;21187;50.976;13.720;2024-03-29T16:47:32;6.55;;;3.00;;
34982;SDS011;21187;50.976;13.720;2024-03-29T16:52:34;14.43;;;4.60;;
34982;SDS011;21187;50.976;13.720;2024-03-29T16:57:36;18.55;;;5.55;;
34982;SDS011;21187;50.976;13.720;2024-03-29T17:02:37;15.65;;;6.88;;
34982;SDS011;21187;50.976;13.720;2024-03-29T17:07:39;15.45;;;7.13;;
34982;SDS011;21187;50.976;13.720;2024-03-29T17:12:40;15.43;;;6.68;;
34982;SDS011;21187;50.976;13.720;2024-03-29T17:17:41;39.63;;;11.60;;
34982;SDS011;21187;50.976;13.720;2024-03-29T17:22:42;8.18;;;3.20;;
34982;SDS011;21187;50.976;13.720;2024-03-29T17:27:43;13.50;;;4.35;;
34982;SDS011;21187;50.976;13.720;2024-03-29T17:32:43;10.57;;;4.93;;
34982;SDS011;21187;50.976;13.720;2024-03-29T17:37:45;9.45;;;3.38;;
34982;SDS011;21187;50.976;13.720;2024-03-29T17:42:46;9.73;;;3.55;;
34982;SDS011;21187;50.976;13.720;2024-03-29T17:47:47;9.70;;;3.67;;
34982;SDS011;21187;50.976;13.720;2024-03-29T17:52:48;5.32;;;2.03;;
34982;SDS011;21187;50.976;13.720;2024-03-29T17:57:49;5.03;;;1.75;;
34982;SDS011;21187;50.976;13.720;2024-03-29T18:02:51;2.63;;;1.52;;
34982;SDS011;21187;50.976;13.720;2024-03-29T18:07:52;15.23;;;7.80;;
34982;SDS011;21187;50.976;13.720;2024-03-29T18:12:53;19.08;;;9.05;;
34982;SDS011;21187;50.976;13.720;2024-03-29T18:17:55;9.27;;;5.32;;
34982;SDS011;21187;50.976;13.720;2024-03-29T18:22:57;11.48;;;4.13;;
34982;SDS011;21187;50.976;13.720;2024-03-29T18:27:59;13.35;;;4.85;;
34982;SDS011;21187;50.976;13.720;2024-03-29T18:33:01;16.00;;;6.20;;
34982;SDS011;21187;50.976;13.720;2024-03-29T18:38:03;13.35;;;4.82;;
34982;SDS011;21187;50.976;13.720;2024-03-29T18:43:03;8.25;;;3.75;;
34982;SDS011;21187;50.976;13.720;2024-03-29T18:48:04;7.55;;;3.88;;
34982;SDS011;21187;50.976;13.720;2024-03-29T18:53:06;9.68;;;4.05;;
34982;SDS011;21187;50.976;13.720;2024-03-29T18:58:08;14.60;;;6.90;;
34982;SDS011;21187;50.976;13.720;2024-03-29T19:03:09;13.40;;;5.47;;
34982;SDS011;21187;50.976;13.720;2024-03-29T19:08:11;9.02;;;3.42;;
34982;SDS011;21187;50.976;13.720;2024-03-29T19:13:12;6.05;;;3.00;;
34982;SDS011;21187;50.976;13.720;2024-03-29T19:18:13;6.63;;;2.83;;
34982;SDS011;21187;50.976;13.720;2024-03-29T19:23:17;7.68;;;3.25;;
34982;SDS011;21187;50.976;13.720;2024-03-29T19:28:18;5.95;;;3.22;;
34982;SDS011;21187;50.976;13.720;2024-03-29T19:33:19;6.00;;;2.75;;
34982;SDS011;21187;50.976;13.720;2024-03-29T19:38:20;6.22;;;2.83;;
34982;SDS011;21187;50.976;13.720;2024-03-29T19:43:21;6.55;;;3.40;;
34982;SDS011;21187;50.976;13.720;2024-03-29T19:48:23;8.75;;;2.90;;
34982;SDS011;21187;50.976;13.720;2024-03-29T19:53:24;6.70;;;3.05;;
34982;SDS011;21187;50.976;13.720;2024-03-29T19:58:25;3.85;;;2.20;;
34982;SDS011;21187;50.976;13.720;2024-03-29T20:03:28;3.22;;;1.90;;
34982;SDS011;21187;50.976;13.720;2024-03-29T20:08:29;3.75;;;1.98;;
34982;SDS011;21187;50.976;13.720;2024-03-29T20:13:32;5.45;;;1.77;;
34982;SDS011;21187;50.976;13.720;2024-03-29T20:18:33;3.60;;;2.00;;
34982;SDS011;21187;50.976;13.720;2024-03-29T20:23:33;5.78;;;1.77;;
34982;SDS011;21187;50.976;13.720;2024-03-29T20:28:35;7.43;;;3.70;;
34982;SDS011;21187;50.976;13.720;2024-03-29T20:33:36;5.32;;;2.67;;
34982;SDS011;21187;50.976;13.720;2024-03-29T20:38:37;4.22;;;2.15;;
34982;SDS011;21187;50.976;13.720;2024-03-29T20:43:38;6.70;;;2.65;;
34982;SDS011;21187;50.976;13.720;2024-03-29T20:48:39;5.70;;;2.20;;
34982;SDS011;21187;50.976;13.720;2024-03-29T20:53:40;7.28;;;2.55;;
34982;SDS011;21187;50.976;13.720;2024-03-29T20:58:41;9.55;;;3.20;;
34982;SDS011;21187;50.976;13.720;2024-03-29T21:03:42;10.52;;;3.00;;
34982;SDS011;21187;50.976;13.720;2024-03-29T21:09:02;5.60;;;2.60;;
34982;SDS011;21187;50.976;13.720;2024-03-29T21:14:05;9.35;;;2.50;;
34982;SDS011;21187;50.976;13.720;2024-03-29T21:19:06;5.68;;;2.47;;
34982;SDS011;21187;50.976;13.720;2024-03-29T21:24:08;4.95;;;2.40;;
34982;SDS011;21187;50.976;13.720;2024-03-29T21:29:08;7.55;;;3.03;;
34982;SDS011;21187;50.976;13.720;2024-03-29T21:34:09;6.80;;;2.55;;
34982;SDS011;21187;50.976;13.720;2024-03-29T21:39:10;5.70;;;2.60;;
34982;SDS011;21187;50.976;13.720;2024-03-29T21:44:12;7.97;;;2.38;;
34982;SDS011;21187;50.976;13.720;2024-03-29T21:49:13;7.40;;;2.67;;
34982;SDS011;21187;50.976;13.720;2024-03-29T21:54:15;6.20;;;2.67;;
34982;SDS011;21187;50.976;13.720;2024-03-29T21:59:17;9.00;;;3.22;;
34982;SDS011;21187;50.976;13.720;2024-03-29T22:04:18;6.93;;;2.60;;
34982;SDS011;21187;50.976;13.720;2024-03-29T22:09:18;8.70;;;3.05;;
34982;SDS011;21187;50.976;13.720;2024-03-29T22:14:19;6.20;;;2.80;;
34982;SDS011;21187;50.976;13.720;2024-03-29T22:19:20;6.93;;;2.80;;
34982;SDS011;21187;50.976;13.720;2024-03-29T22:24:21;7.13;;;2.63;;
34982;SDS011;21187;50.976;13.720;2024-03-29T22:29:22;13.80;;;3.65;;
34982;SDS011;21187;50.976;13.720;2024-03-29T22:34:23;5.85;;;2.95;;
34982;SDS011;21187;50.976;13.720;2024-03-29T22:39:24;5.80;;;2.85;;
34982;SDS011;21187;50.976;13.720;2024-03-29T22:44:24;8.00;;;3.63;;
34982;SDS011;21187;50.976;13.720;2024-03-29T22:49:25;7.68;;;3.30;;
34982;SDS011;21187;50.976;13.720;2024-03-29T22:54:26;10.18;;;3.60;;
34982;SDS011;21187;50.976;13.720;2024-03-29T22:59:27;6.35;;;3.13;;
34982;SDS011;21187;50.976;13.720;2024-03-29T23:04:28;10.40;;;3.33;;
34982;SDS011;21187;50.976;13.720;2024-03-29T23:09:29;9.57;;;3.15;;
34982;SDS011;21187;50.976;13.720;2024-03-29T23:14:30;8.05;;;2.85;;
34982;SDS011;21187;50.976;13.720;2024-03-29T23:19:30;5.72;;;2.63;;
34982;SDS011;21187;50.976;13.720;2024-03-29T23:24:33;5.57;;;2.45;;
34982;SDS011;21187;50.976;13.720;2024-03-29T23:29:34;9.27;;;2.42;;
34982;SDS011;21187;50.976;13.720;2024-03-29T23:34:34;5.18;;;2.83;;
34982;SDS011;21187;50.976;13.720;2024-03-29T23:39:35;6.13;;;2.90;;
34982;SDS011;21187;50.976;13.720;2024-03-29T23:44:36;8.18;;;2.83;;
34982;SDS011;21187;50.976;13.720;2024-03-29T23:49:37;6.63;;;2.53;;
34982;SDS011;21187;50.976;13.720;2024-03-29T23:54:38;11.68;;;2.80;;
34982;SDS011;21187;50.976;13.720;2024-03-29T23:59:38;10.48;;;2.63;;
